首页
METAR-TAF:

METAR-TAF

机场 :

纽贝里, 南卡罗来纳州, 美国

纬度: 34-18-34N, 经度: 081-38-26W, 海拔: 174米

当前天气观测

该预报发布于16分钟前的16:55 UTC
静风
温度 6°C
湿度 65%
气压 1024 hPa
能見度: 16.1公里
天空无云

METAR: KEOE 121655Z AUTO 00000KT 10SM CLR 06/00 A3023 RMK AO2

时间: 12:11 (17:11 UTC)


TAF: 丢失

超过4000个机场的气象观测和天气预报(METAR&TAF报告)。

可查询的气象台以黄色和红色小点在地图上表示。

将鼠标移到小点上方,可查看气象台名称。

然后点击查看天气观测和预报。

如需切换地图:点击带黑十字的绿色按钮放大地图;点击带横线的绿色按钮缩小地图;或者点击绿色箭头查看邻近地区的地图。


METAR-TAF: